sensor_id;sensor_type;location;lat;lon;timestamp;P1;durP1;ratioP1;P2;durP2;ratioP2
17449;SDS011;8842;51.244;7.102;2023-07-24T00:04:01;14.50;;;13.70;;
17449;SDS011;8842;51.244;7.102;2023-07-24T00:09:14;15.50;;;14.00;;
17449;SDS011;8842;51.244;7.102;2023-07-24T00:14:18;14.60;;;13.80;;
17449;SDS011;8842;51.244;7.102;2023-07-24T00:19:30;14.60;;;13.80;;
17449;SDS011;8842;51.244;7.102;2023-07-24T00:24:34;14.60;;;13.80;;
17449;SDS011;8842;51.244;7.102;2023-07-24T00:29:38;14.60;;;13.80;;
17449;SDS011;8842;51.244;7.102;2023-07-24T00:34:42;14.40;;;13.60;;
17449;SDS011;8842;51.244;7.102;2023-07-24T00:39:54;14.70;;;13.90;;
17449;SDS011;8842;51.244;7.102;2023-07-24T00:44:57;14.60;;;13.80;;
17449;SDS011;8842;51.244;7.102;2023-07-24T00:50:09;14.37;;;13.57;;
17449;SDS011;8842;51.244;7.102;2023-07-24T00:55:15;14.57;;;13.77;;
17449;SDS011;8842;51.244;7.102;2023-07-24T01:00:27;14.50;;;13.70;;
17449;SDS011;8842;51.244;7.102;2023-07-24T01:10:42;14.63;;;13.83;;
17449;SDS011;8842;51.244;7.102;2023-07-24T01:15:48;14.70;;;13.90;;
17449;SDS011;8842;51.244;7.102;2023-07-24T01:21:01;14.50;;;13.70;;
17449;SDS011;8842;51.244;7.102;2023-07-24T01:26:07;14.37;;;13.57;;
17449;SDS011;8842;51.244;7.102;2023-07-24T01:31:19;14.33;;;13.57;;
17449;SDS011;8842;51.244;7.102;2023-07-24T01:36:23;14.60;;;13.80;;
17449;SDS011;8842;51.244;7.102;2023-07-24T01:41:27;14.37;;;13.57;;
17449;SDS011;8842;51.244;7.102;2023-07-24T01:46:31;14.60;;;13.80;;
17449;SDS011;8842;51.244;7.102;2023-07-24T01:51:35;14.80;;;14.00;;
17449;SDS011;8842;51.244;7.102;2023-07-24T01:56:47;14.70;;;13.90;;
17449;SDS011;8842;51.244;7.102;2023-07-24T02:01:51;14.50;;;13.70;;
17449;SDS011;8842;51.244;7.102;2023-07-24T02:07:03;14.60;;;13.80;;
17449;SDS011;8842;51.244;7.102;2023-07-24T02:12:08;14.40;;;13.60;;
17449;SDS011;8842;51.244;7.102;2023-07-24T02:17:20;14.50;;;13.70;;
17449;SDS011;8842;51.244;7.102;2023-07-24T02:22:24;14.40;;;13.60;;
17449;SDS011;8842;51.244;7.102;2023-07-24T02:27:29;14.43;;;13.63;;
17449;SDS011;8842;51.244;7.102;2023-07-24T02:32:42;14.40;;;13.60;;
17449;SDS011;8842;51.244;7.102;2023-07-24T02:37:46;14.37;;;13.57;;
17449;SDS011;8842;51.244;7.102;2023-07-24T02:42:58;14.20;;;13.47;;
17449;SDS011;8842;51.244;7.102;2023-07-24T02:48:03;14.60;;;13.80;;
17449;SDS011;8842;51.244;7.102;2023-07-24T02:53:18;14.70;;;13.90;;
17449;SDS011;8842;51.244;7.102;2023-07-24T02:58:22;14.80;;;14.00;;
17449;SDS011;8842;51.244;7.102;2023-07-24T03:03:26;15.67;;;14.87;;
17449;SDS011;8842;51.244;7.102;2023-07-24T03:08:37;15.83;;;14.77;;
17449;SDS011;8842;51.244;7.102;2023-07-24T03:13:42;15.57;;;14.77;;
17449;SDS011;8842;51.244;7.102;2023-07-24T03:18:53;15.60;;;14.80;;
17449;SDS011;8842;51.244;7.102;2023-07-24T03:23:57;15.03;;;14.23;;
17449;SDS011;8842;51.244;7.102;2023-07-24T03:29:09;14.97;;;14.17;;
17449;SDS011;8842;51.244;7.102;2023-07-24T03:34:13;15.20;;;14.40;;
17449;SDS011;8842;51.244;7.102;2023-07-24T03:39:25;15.10;;;14.30;;
17449;SDS011;8842;51.244;7.102;2023-07-24T03:44:29;14.70;;;13.90;;
17449;SDS011;8842;51.244;7.102;2023-07-24T03:49:43;15.17;;;14.37;;
17449;SDS011;8842;51.244;7.102;2023-07-24T03:54:47;15.30;;;14.50;;
17449;SDS011;8842;51.244;7.102;2023-07-24T03:59:51;15.40;;;14.60;;
17449;SDS011;8842;51.244;7.102;2023-07-24T04:05:03;15.70;;;14.90;;
17449;SDS011;8842;51.244;7.102;2023-07-24T04:10:08;15.87;;;14.97;;
17449;SDS011;8842;51.244;7.102;2023-07-24T04:15:12;16.40;;;15.50;;
17449;SDS011;8842;51.244;7.102;2023-07-24T04:25:30;16.60;;;15.70;;
17449;SDS011;8842;51.244;7.102;2023-07-24T04:30:34;16.43;;;15.53;;
17449;SDS011;8842;51.244;7.102;2023-07-24T04:35:47;15.87;;;14.97;;
17449;SDS011;8842;51.244;7.102;2023-07-24T04:40:51;15.70;;;14.90;;
17449;SDS011;8842;51.244;7.102;2023-07-24T04:46:06;15.90;;;15.00;;
17449;SDS011;8842;51.244;7.102;2023-07-24T04:51:10;15.83;;;14.93;;
17449;SDS011;8842;51.244;7.102;2023-07-24T04:56:14;16.00;;;15.10;;
17449;SDS011;8842;51.244;7.102;2023-07-24T05:01:25;16.07;;;15.17;;
17449;SDS011;8842;51.244;7.102;2023-07-24T05:06:29;16.60;;;15.70;;
17449;SDS011;8842;51.244;7.102;2023-07-24T05:11:41;16.50;;;15.60;;
17449;SDS011;8842;51.244;7.102;2023-07-24T05:16:47;16.50;;;15.60;;
17449;SDS011;8842;51.244;7.102;2023-07-24T05:21:51;16.63;;;15.73;;
17449;SDS011;8842;51.244;7.102;2023-07-24T05:27:03;16.77;;;15.87;;
17449;SDS011;8842;51.244;7.102;2023-07-24T05:32:08;16.73;;;15.83;;
17449;SDS011;8842;51.244;7.102;2023-07-24T05:37:20;16.80;;;15.90;;
17449;SDS011;8842;51.244;7.102;2023-07-24T05:42:24;16.50;;;15.60;;
17449;SDS011;8842;51.244;7.102;2023-07-24T05:47:28;16.43;;;15.53;;
17449;SDS011;8842;51.244;7.102;2023-07-24T05:52:32;16.67;;;15.77;;
17449;SDS011;8842;51.244;7.102;2023-07-24T05:57:47;17.07;;;16.07;;
17449;SDS011;8842;51.244;7.102;2023-07-24T06:02:51;16.80;;;15.87;;
17449;SDS011;8842;51.244;7.102;2023-07-24T06:08:02;16.80;;;15.90;;
17449;SDS011;8842;51.244;7.102;2023-07-24T06:13:07;17.17;;;16.17;;
17449;SDS011;8842;51.244;7.102;2023-07-24T06:18:11;17.27;;;16.27;;
17449;SDS011;8842;51.244;7.102;2023-07-24T06:23:31;16.90;;;16.00;;
17449;SDS011;8842;51.244;7.102;2023-07-24T06:29:18;16.10;;;15.20;;
17449;SDS011;8842;51.244;7.102;2023-07-24T06:34:29;16.30;;;15.40;;
17449;SDS011;8842;51.244;7.102;2023-07-24T06:39:33;15.53;;;14.73;;
17449;SDS011;8842;51.244;7.102;2023-07-24T06:44:45;15.50;;;14.70;;
17449;SDS011;8842;51.244;7.102;2023-07-24T06:49:49;15.67;;;14.83;;
17449;SDS011;8842;51.244;7.102;2023-07-24T06:54:53;15.43;;;14.63;;
17449;SDS011;8842;51.244;7.102;2023-07-24T06:59:57;16.13;;;15.23;;
17449;SDS011;8842;51.244;7.102;2023-07-24T07:10:12;15.63;;;14.80;;
17449;SDS011;8842;51.244;7.102;2023-07-24T07:15:16;15.83;;;14.93;;
17449;SDS011;8842;51.244;7.102;2023-07-24T07:20:20;16.20;;;15.30;;
17449;SDS011;8842;51.244;7.102;2023-07-24T07:25:32;16.00;;;15.10;;
17449;SDS011;8842;51.244;7.102;2023-07-24T07:30:36;16.03;;;15.13;;
17449;SDS011;8842;51.244;7.102;2023-07-24T07:35:48;15.70;;;14.90;;
17449;SDS011;8842;51.244;7.102;2023-07-24T07:40:52;15.73;;;14.93;;
17449;SDS011;8842;51.244;7.102;2023-07-24T07:46:04;15.98;;;15.18;;
17449;SDS011;8842;51.244;7.102;2023-07-24T07:51:08;15.80;;;15.00;;
17449;SDS011;8842;51.244;7.102;2023-07-24T07:56:12;15.57;;;14.77;;
17449;SDS011;8842;51.244;7.102;2023-07-24T08:01:16;15.77;;;14.97;;
17449;SDS011;8842;51.244;7.102;2023-07-24T08:06:20;15.20;;;14.40;;
17449;SDS011;8842;51.244;7.102;2023-07-24T08:11:34;14.90;;;14.10;;
17449;SDS011;8842;51.244;7.102;2023-07-24T08:16:38;15.00;;;14.20;;
17449;SDS011;8842;51.244;7.102;2023-07-24T08:21:42;14.78;;;13.98;;
17449;SDS011;8842;51.244;7.102;2023-07-24T08:26:46;14.43;;;13.70;;
17449;SDS011;8842;51.244;7.102;2023-07-24T08:31:50;14.13;;;13.43;;
17449;SDS011;8842;51.244;7.102;2023-07-24T08:36:54;14.73;;;13.93;;
17449;SDS011;8842;51.244;7.102;2023-07-24T08:42:09;14.98;;;14.18;;
17449;SDS011;8842;51.244;7.102;2023-07-24T08:47:15;14.90;;;14.10;;
17449;SDS011;8842;51.244;7.102;2023-07-24T08:52:26;15.10;;;14.30;;
17449;SDS011;8842;51.244;7.102;2023-07-24T08:57:31;15.30;;;14.50;;
17449;SDS011;8842;51.244;7.102;2023-07-24T09:02:42;14.90;;;14.10;;
17449;SDS011;8842;51.244;7.102;2023-07-24T09:07:47;15.80;;;15.00;;
17449;SDS011;8842;51.244;7.102;2023-07-24T09:12:51;14.98;;;14.18;;
17449;SDS011;8842;51.244;7.102;2023-07-24T09:17:56;15.18;;;14.38;;
17449;SDS011;8842;51.244;7.102;2023-07-24T09:23:07;16.10;;;15.20;;
17449;SDS011;8842;51.244;7.102;2023-07-24T09:28:12;15.15;;;14.35;;
17449;SDS011;8842;51.244;7.102;2023-07-24T09:33:34;15.03;;;14.23;;
17449;SDS011;8842;51.244;7.102;2023-07-24T09:38:40;15.00;;;14.20;;
17449;SDS011;8842;51.244;7.102;2023-07-24T09:43:58;14.80;;;14.00;;
17449;SDS011;8842;51.244;7.102;2023-07-24T09:49:02;15.03;;;14.23;;
17449;SDS011;8842;51.244;7.102;2023-07-24T09:54:15;15.40;;;14.60;;
17449;SDS011;8842;51.244;7.102;2023-07-24T09:59:21;15.30;;;14.50;;
17449;SDS011;8842;51.244;7.102;2023-07-24T10:04:36;15.07;;;14.27;;
17449;SDS011;8842;51.244;7.102;2023-07-24T10:09:43;15.13;;;14.33;;
17449;SDS011;8842;51.244;7.102;2023-07-24T10:14:55;14.70;;;13.90;;
17449;SDS011;8842;51.244;7.102;2023-07-24T10:20:02;13.93;;;13.23;;
17449;SDS011;8842;51.244;7.102;2023-07-24T10:25:15;14.63;;;13.83;;
17449;SDS011;8842;51.244;7.102;2023-07-24T10:30:27;13.55;;;12.85;;
17449;SDS011;8842;51.244;7.102;2023-07-24T10:35:42;13.10;;;12.40;;
17449;SDS011;8842;51.244;7.102;2023-07-24T10:40:48;13.40;;;12.70;;
17449;SDS011;8842;51.244;7.102;2023-07-24T10:45:55;14.07;;;13.08;;
17449;SDS011;8842;51.244;7.102;2023-07-24T10:51:07;14.30;;;13.60;;
17449;SDS011;8842;51.244;7.102;2023-07-24T10:56:12;13.75;;;13.05;;
17449;SDS011;8842;51.244;7.102;2023-07-24T11:01:24;12.40;;;11.80;;
17449;SDS011;8842;51.244;7.102;2023-07-24T11:06:36;11.45;;;10.85;;
17449;SDS011;8842;51.244;7.102;2023-07-24T11:11:40;9.70;;;9.20;;
17449;SDS011;8842;51.244;7.102;2023-07-24T11:16:51;11.20;;;10.60;;
17449;SDS011;8842;51.244;7.102;2023-07-24T11:21:55;10.85;;;10.25;;
17449;SDS011;8842;51.244;7.102;2023-07-24T11:27:00;10.85;;;10.30;;
17449;SDS011;8842;51.244;7.102;2023-07-24T11:32:12;11.70;;;11.10;;
17449;SDS011;8842;51.244;7.102;2023-07-24T11:37:23;11.50;;;10.90;;
17449;SDS011;8842;51.244;7.102;2023-07-24T11:42:27;11.83;;;11.22;;
17449;SDS011;8842;51.244;7.102;2023-07-24T11:47:42;14.90;;;14.10;;
17449;SDS011;8842;51.244;7.102;2023-07-24T11:52:48;16.37;;;15.47;;
17449;SDS011;8842;51.244;7.102;2023-07-24T11:58:01;16.20;;;15.30;;
17449;SDS011;8842;51.244;7.102;2023-07-24T12:03:06;16.63;;;15.73;;
17449;SDS011;8842;51.244;7.102;2023-07-24T12:08:20;17.10;;;16.20;;
17449;SDS011;8842;51.244;7.102;2023-07-24T12:13:27;17.43;;;16.43;;
17449;SDS011;8842;51.244;7.102;2023-07-24T12:18:31;17.43;;;16.43;;
17449;SDS011;8842;51.244;7.102;2023-07-24T12:23:36;17.10;;;16.20;;
17449;SDS011;8842;51.244;7.102;2023-07-24T12:28:40;16.47;;;15.57;;
17449;SDS011;8842;51.244;7.102;2023-07-24T12:33:44;16.50;;;15.60;;
17449;SDS011;8842;51.244;7.102;2023-07-24T12:38:48;15.83;;;15.03;;
17449;SDS011;8842;51.244;7.102;2023-07-24T12:43:52;16.70;;;15.80;;
17449;SDS011;8842;51.244;7.102;2023-07-24T12:48:56;15.83;;;15.03;;
17449;SDS011;8842;51.244;7.102;2023-07-24T12:54:00;16.40;;;15.50;;
17449;SDS011;8842;51.244;7.102;2023-07-24T12:59:05;15.60;;;14.80;;
17449;SDS011;8842;51.244;7.102;2023-07-24T13:04:09;15.53;;;14.73;;
17449;SDS011;8842;51.244;7.102;2023-07-24T13:09:13;15.90;;;15.10;;
17449;SDS011;8842;51.244;7.102;2023-07-24T13:14:17;16.00;;;15.20;;
17449;SDS011;8842;51.244;7.102;2023-07-24T13:19:21;17.37;;;15.80;;
17449;SDS011;8842;51.244;7.102;2023-07-24T13:24:25;15.50;;;14.70;;
17449;SDS011;8842;51.244;7.102;2023-07-24T13:29:30;15.47;;;14.67;;
17449;SDS011;8842;51.244;7.102;2023-07-24T13:34:34;15.30;;;14.50;;
17449;SDS011;8842;51.244;7.102;2023-07-24T13:39:38;15.57;;;14.77;;
17449;SDS011;8842;51.244;7.102;2023-07-24T13:49:59;16.30;;;15.40;;
17449;SDS011;8842;51.244;7.102;2023-07-24T13:55:06;15.90;;;15.10;;
17449;SDS011;8842;51.244;7.102;2023-07-24T14:00:20;15.57;;;14.77;;
17449;SDS011;8842;51.244;7.102;2023-07-24T14:05:24;14.87;;;14.07;;
17449;SDS011;8842;51.244;7.102;2023-07-24T14:10:38;15.37;;;14.57;;
17449;SDS011;8842;51.244;7.102;2023-07-24T14:15:50;15.17;;;14.37;;
17449;SDS011;8842;51.244;7.102;2023-07-24T14:20:54;15.03;;;14.23;;
17449;SDS011;8842;51.244;7.102;2023-07-24T14:31:10;15.40;;;14.60;;
17449;SDS011;8842;51.244;7.102;2023-07-24T14:36:14;15.00;;;14.20;;
17449;SDS011;8842;51.244;7.102;2023-07-24T14:41:26;15.10;;;14.30;;
17449;SDS011;8842;51.244;7.102;2023-07-24T14:46:30;14.55;;;13.80;;
17449;SDS011;8842;51.244;7.102;2023-07-24T14:51:41;14.75;;;13.95;;
17449;SDS011;8842;51.244;7.102;2023-07-24T14:56:53;15.93;;;15.13;;
17449;SDS011;8842;51.244;7.102;2023-07-24T15:01:58;16.53;;;15.63;;
17449;SDS011;8842;51.244;7.102;2023-07-24T15:07:10;15.50;;;14.70;;
17449;SDS011;8842;51.244;7.102;2023-07-24T15:12:14;16.37;;;15.47;;
17449;SDS011;8842;51.244;7.102;2023-07-24T15:17:28;16.40;;;15.50;;
17449;SDS011;8842;51.244;7.102;2023-07-24T15:22:32;15.60;;;14.80;;
17449;SDS011;8842;51.244;7.102;2023-07-24T15:27:36;14.60;;;13.80;;
17449;SDS011;8842;51.244;7.102;2023-07-24T15:32:50;15.70;;;14.90;;
17449;SDS011;8842;51.244;7.102;2023-07-24T15:37:54;15.80;;;15.00;;
17449;SDS011;8842;51.244;7.102;2023-07-24T15:42:58;15.27;;;14.47;;
17449;SDS011;8842;51.244;7.102;2023-07-24T15:48:03;15.60;;;14.80;;
17449;SDS011;8842;51.244;7.102;2023-07-24T15:53:08;15.83;;;15.03;;
17449;SDS011;8842;51.244;7.102;2023-07-24T15:58:22;15.87;;;15.07;;
17449;SDS011;8842;51.244;7.102;2023-07-24T16:08:37;16.17;;;15.37;;
17449;SDS011;8842;51.244;7.102;2023-07-24T16:13:41;16.57;;;15.68;;
17449;SDS011;8842;51.244;7.102;2023-07-24T16:18:46;16.70;;;15.80;;
17449;SDS011;8842;51.244;7.102;2023-07-24T16:23:50;16.63;;;15.73;;
17449;SDS011;8842;51.244;7.102;2023-07-24T16:28:54;16.70;;;15.80;;
17449;SDS011;8842;51.244;7.102;2023-07-24T16:33:59;16.15;;;15.35;;
17449;SDS011;8842;51.244;7.102;2023-07-24T16:39:04;17.10;;;16.10;;
17449;SDS011;8842;51.244;7.102;2023-07-24T16:44:15;15.43;;;14.63;;
17449;SDS011;8842;51.244;7.102;2023-07-24T16:49:19;16.10;;;15.30;;
17449;SDS011;8842;51.244;7.102;2023-07-24T16:54:23;16.07;;;15.27;;
17449;SDS011;8842;51.244;7.102;2023-07-24T16:59:35;16.03;;;15.23;;
17449;SDS011;8842;51.244;7.102;2023-07-24T17:04:39;15.50;;;14.70;;
17449;SDS011;8842;51.244;7.102;2023-07-24T17:09:44;15.80;;;15.00;;
17449;SDS011;8842;51.244;7.102;2023-07-24T17:14:58;15.70;;;14.90;;
17449;SDS011;8842;51.244;7.102;2023-07-24T17:20:02;15.00;;;14.20;;
17449;SDS011;8842;51.244;7.102;2023-07-24T17:25:15;15.10;;;14.30;;
17449;SDS011;8842;51.244;7.102;2023-07-24T17:30:27;14.30;;;13.50;;
17449;SDS011;8842;51.244;7.102;2023-07-24T17:35:31;14.70;;;13.90;;
17449;SDS011;8842;51.244;7.102;2023-07-24T17:40:35;15.60;;;14.80;;
17449;SDS011;8842;51.244;7.102;2023-07-24T17:45:48;15.77;;;14.97;;
17449;SDS011;8842;51.244;7.102;2023-07-24T17:50:52;15.93;;;15.13;;
17449;SDS011;8842;51.244;7.102;2023-07-24T17:56:04;15.53;;;14.73;;
17449;SDS011;8842;51.244;7.102;2023-07-24T18:01:08;15.73;;;14.93;;
17449;SDS011;8842;51.244;7.102;2023-07-24T18:11:26;16.00;;;15.20;;
17449;SDS011;8842;51.244;7.102;2023-07-24T18:16:38;15.87;;;15.07;;
17449;SDS011;8842;51.244;7.102;2023-07-24T18:21:42;16.00;;;15.20;;
17449;SDS011;8842;51.244;7.102;2023-07-24T18:26:46;15.93;;;15.13;;
17449;SDS011;8842;51.244;7.102;2023-07-24T18:32:01;15.57;;;14.77;;
17449;SDS011;8842;51.244;7.102;2023-07-24T18:37:05;15.93;;;15.13;;
17449;SDS011;8842;51.244;7.102;2023-07-24T18:47:20;16.33;;;15.43;;
17449;SDS011;8842;51.244;7.102;2023-07-24T18:52:24;16.00;;;15.20;;
17449;SDS011;8842;51.244;7.102;2023-07-24T18:57:39;15.77;;;14.97;;
17449;SDS011;8842;51.244;7.102;2023-07-24T19:02:43;16.13;;;15.33;;
17449;SDS011;8842;51.244;7.102;2023-07-24T19:07:48;16.30;;;15.40;;
17449;SDS011;8842;51.244;7.102;2023-07-24T19:13:02;15.87;;;15.07;;
17449;SDS011;8842;51.244;7.102;2023-07-24T19:18:06;16.00;;;15.20;;
17449;SDS011;8842;51.244;7.102;2023-07-24T19:23:10;15.80;;;15.00;;
17449;SDS011;8842;51.244;7.102;2023-07-24T19:28:24;16.33;;;15.43;;
17449;SDS011;8842;51.244;7.102;2023-07-24T19:33:28;16.30;;;15.40;;
17449;SDS011;8842;51.244;7.102;2023-07-24T19:38:34;16.00;;;15.20;;
17449;SDS011;8842;51.244;7.102;2023-07-24T19:43:46;15.50;;;14.70;;
17449;SDS011;8842;51.244;7.102;2023-07-24T19:48:50;16.03;;;15.17;;
17449;SDS011;8842;51.244;7.102;2023-07-24T19:54:02;16.30;;;15.40;;
17449;SDS011;8842;51.244;7.102;2023-07-24T19:59:06;16.33;;;15.43;;
17449;SDS011;8842;51.244;7.102;2023-07-24T20:04:18;16.30;;;15.40;;
17449;SDS011;8842;51.244;7.102;2023-07-24T20:09:22;16.00;;;15.20;;
17449;SDS011;8842;51.244;7.102;2023-07-24T20:14:34;15.70;;;14.80;;
17449;SDS011;8842;51.244;7.102;2023-07-24T20:19:38;15.70;;;14.83;;
17449;SDS011;8842;51.244;7.102;2023-07-24T20:24:51;16.50;;;15.40;;
17449;SDS011;8842;51.244;7.102;2023-07-24T20:29:56;15.67;;;14.87;;
17449;SDS011;8842;51.244;7.102;2023-07-24T20:35:09;15.83;;;15.00;;
17449;SDS011;8842;51.244;7.102;2023-07-24T20:40:14;16.10;;;15.20;;
17449;SDS011;8842;51.244;7.102;2023-07-24T20:50:30;16.00;;;15.10;;
17449;SDS011;8842;51.244;7.102;2023-07-24T20:55:38;16.10;;;15.20;;
17449;SDS011;8842;51.244;7.102;2023-07-24T21:00:50;15.80;;;15.00;;
17449;SDS011;8842;51.244;7.102;2023-07-24T21:05:54;15.93;;;15.10;;
17449;SDS011;8842;51.244;7.102;2023-07-24T21:11:06;15.63;;;14.83;;
17449;SDS011;8842;51.244;7.102;2023-07-24T21:16:10;15.70;;;14.90;;
17449;SDS011;8842;51.244;7.102;2023-07-24T21:21:24;15.77;;;14.97;;
17449;SDS011;8842;51.244;7.102;2023-07-24T21:26:28;15.60;;;14.80;;
17449;SDS011;8842;51.244;7.102;2023-07-24T21:31:32;15.80;;;15.00;;
17449;SDS011;8842;51.244;7.102;2023-07-24T21:36:36;16.17;;;15.27;;
17449;SDS011;8842;51.244;7.102;2023-07-24T21:41:48;16.30;;;15.40;;
17449;SDS011;8842;51.244;7.102;2023-07-24T21:46:52;15.97;;;15.10;;
17449;SDS011;8842;51.244;7.102;2023-07-24T21:52:05;16.27;;;15.37;;
17449;SDS011;8842;51.244;7.102;2023-07-24T21:57:10;15.73;;;14.93;;
17449;SDS011;8842;51.244;7.102;2023-07-24T22:02:21;15.70;;;14.90;;
17449;SDS011;8842;51.244;7.102;2023-07-24T22:07:25;15.90;;;15.10;;
17449;SDS011;8842;51.244;7.102;2023-07-24T22:12:37;15.70;;;14.90;;
17449;SDS011;8842;51.244;7.102;2023-07-24T22:17:41;16.30;;;15.40;;
17449;SDS011;8842;51.244;7.102;2023-07-24T22:22:55;16.30;;;15.40;;
17449;SDS011;8842;51.244;7.102;2023-07-24T22:28:00;16.40;;;15.50;;
17449;SDS011;8842;51.244;7.102;2023-07-24T22:33:04;16.23;;;15.33;;
17449;SDS011;8842;51.244;7.102;2023-07-24T22:38:18;16.50;;;15.60;;
17449;SDS011;8842;51.244;7.102;2023-07-24T22:43:22;15.87;;;15.07;;
17449;SDS011;8842;51.244;7.102;2023-07-24T22:48:36;16.00;;;15.10;;
17449;SDS011;8842;51.244;7.102;2023-07-24T22:53:41;15.67;;;14.87;;
17449;SDS011;8842;51.244;7.102;2023-07-24T23:04:35;15.73;;;14.93;;
17449;SDS011;8842;51.244;7.102;2023-07-24T23:09:39;15.70;;;14.90;;
17449;SDS011;8842;51.244;7.102;2023-07-24T23:14:51;15.40;;;14.60;;
17449;SDS011;8842;51.244;7.102;2023-07-24T23:19:55;15.27;;;14.47;;
17449;SDS011;8842;51.244;7.102;2023-07-24T23:25:10;15.30;;;14.50;;
17449;SDS011;8842;51.244;7.102;2023-07-24T23:30:14;15.40;;;14.60;;
17449;SDS011;8842;51.244;7.102;2023-07-24T23:35:18;15.37;;;14.57;;
17449;SDS011;8842;51.244;7.102;2023-07-24T23:40:30;15.47;;;14.67;;
17449;SDS011;8842;51.244;7.102;2023-07-24T23:45:34;15.37;;;14.57;;
17449;SDS011;8842;51.244;7.102;2023-07-24T23:50:38;15.33;;;14.53;;
17449;SDS011;8842;51.244;7.102;2023-07-24T23:55:50;15.53;;;14.73;;
